13.56C
пасмурно
пасмурно
Дата и времяТемператураДавление, мм рт.ст.Влажность, %Осадки
МинимумМаксимум
16.08.2022 23:0012.05C13.06C76553пасмурно
17.08.2022 02:0010.19C11.31C76561пасмурно
17.08.2022 05:006.99C6.99C76678облачно с прояснениями
17.08.2022 08:0010.77C10.77C76660переменная облачность
17.08.2022 11:0013.25C13.25C76647переменная облачность
17.08.2022 14:0012.08C12.08C76652небольшой дождь
17.08.2022 17:0012.43C12.43C76745небольшой дождь
17.08.2022 20:009.44C9.44C76756переменная облачность
17.08.2022 23:006.98C6.98C76864переменная облачность
18.08.2022 02:006.09C6.09C76866облачно с прояснениями
18.08.2022 05:007.06C7.06C76862облачно с прояснениями
18.08.2022 08:008.73C8.73C76864пасмурно
18.08.2022 11:009.91C9.91C76866пасмурно
18.08.2022 14:0013.56C13.56C76858пасмурно
18.08.2022 17:0015.88C15.88C76849пасмурно
18.08.2022 20:0012.17C12.17C76972облачно с прояснениями
18.08.2022 23:0012.15C12.15C76969пасмурно
19.08.2022 02:009.86C9.86C76980пасмурно
19.08.2022 05:009.67C9.67C76980пасмурно
19.08.2022 08:0013.11C13.11C76966пасмурно
19.08.2022 11:0012.82C12.82C76868пасмурно
19.08.2022 14:0013.12C13.12C76866пасмурно
19.08.2022 17:0015.99C15.99C76852пасмурно
19.08.2022 20:0013.94C13.94C76764пасмурно
19.08.2022 23:0012.6C12.6C76670пасмурно
20.08.2022 02:0012.08C12.08C76577пасмурно
20.08.2022 05:0012.9C12.9C76589небольшой дождь
20.08.2022 08:0016.49C16.49C76587небольшой дождь
20.08.2022 11:0019.78C19.78C76476небольшой дождь
20.08.2022 14:0024.63C24.63C76353пасмурно
20.08.2022 17:0022.89C22.89C76260небольшой дождь
20.08.2022 20:0018.96C18.96C76379небольшой дождь
20.08.2022 23:0016.32C16.32C76587небольшой дождь
21.08.2022 02:0011.89C11.89C76587облачно с прояснениями
21.08.2022 05:009.94C9.94C76693облачно с прояснениями
21.08.2022 08:0012.72C12.72C76765облачно с прояснениями
21.08.2022 11:0015.64C15.64C76838переменная облачность
21.08.2022 14:0018.07C18.07C76831ясно
21.08.2022 17:0017.99C17.99C76831ясно
21.08.2022 20:0012.77C12.77C76951ясно
Дата и время наблюдения: 16.08.2022 20:29:22